sensor_id;sensor_type;location;lat;lon;timestamp;pressure;altitude;pressure_sealevel;temperature;humidity
14790;BME280;7486;51.010;10.366;2023-04-19T00:00:17;99183.09;;;5.93;86.57
14790;BME280;7486;51.010;10.366;2023-04-19T00:03:04;99225.56;;;6.24;85.22
14790;BME280;7486;51.010;10.366;2023-04-19T00:05:50;99217.31;;;6.19;85.90
14790;BME280;7486;51.010;10.366;2023-04-19T00:08:35;99132.03;;;5.78;85.38
14790;BME280;7486;51.010;10.366;2023-04-19T00:11:20;99150.41;;;5.96;84.84
14790;BME280;7486;51.010;10.366;2023-04-19T00:14:05;99208.25;;;6.39;84.66
14790;BME280;7486;51.010;10.366;2023-04-19T00:16:51;99220.13;;;6.51;84.10
14790;BME280;7486;51.010;10.366;2023-04-19T00:19:36;99208.53;;;6.62;82.96
14790;BME280;7486;51.010;10.366;2023-04-19T00:22:22;99207.81;;;6.52;83.17
14790;BME280;7486;51.010;10.366;2023-04-19T00:25:08;99205.03;;;6.53;82.98
14790;BME280;7486;51.010;10.366;2023-04-19T00:27:53;99208.50;;;6.54;82.10
14790;BME280;7486;51.010;10.366;2023-04-19T00:30:39;99209.72;;;6.67;82.40
14790;BME280;7486;51.010;10.366;2023-04-19T00:33:24;99212.41;;;6.76;81.72
14790;BME280;7486;51.010;10.366;2023-04-19T00:36:09;99216.75;;;6.85;80.99
14790;BME280;7486;51.010;10.366;2023-04-19T00:38:56;99213.47;;;6.65;79.35
14790;BME280;7486;51.010;10.366;2023-04-19T00:41:41;99206.06;;;6.60;79.42
14790;BME280;7486;51.010;10.366;2023-04-19T00:44:26;99144.66;;;6.00;77.34
14790;BME280;7486;51.010;10.366;2023-04-19T00:47:13;99204.19;;;6.27;77.83
14790;BME280;7486;51.010;10.366;2023-04-19T00:49:58;99205.41;;;6.33;77.12
14790;BME280;7486;51.010;10.366;2023-04-19T00:52:45;99205.41;;;6.33;76.86
14790;BME280;7486;51.010;10.366;2023-04-19T00:55:30;99206.56;;;6.38;76.06
14790;BME280;7486;51.010;10.366;2023-04-19T00:58:16;99175.56;;;6.24;76.25
14790;BME280;7486;51.010;10.366;2023-04-19T01:01:01;99200.09;;;6.50;75.99
14790;BME280;7486;51.010;10.366;2023-04-19T01:03:47;99191.91;;;6.61;76.19
14790;BME280;7486;51.010;10.366;2023-04-19T01:06:37;99189.34;;;6.44;76.37
14790;BME280;7486;51.010;10.366;2023-04-19T01:09:28;99187.59;;;6.52;74.89
14790;BME280;7486;51.010;10.366;2023-04-19T01:12:14;99184.69;;;6.63;74.12
14790;BME280;7486;51.010;10.366;2023-04-19T01:15:01;99181.41;;;6.69;74.54
14790;BME280;7486;51.010;10.366;2023-04-19T01:17:46;99187.41;;;6.80;74.27
14790;BME280;7486;51.010;10.366;2023-04-19T01:20:32;99188.44;;;6.87;73.92
14790;BME280;7486;51.010;10.366;2023-04-19T01:23:17;99188.28;;;6.88;73.91
14790;BME280;7486;51.010;10.366;2023-04-19T01:26:02;99180.22;;;6.90;74.15
14790;BME280;7486;51.010;10.366;2023-04-19T01:28:48;99183.69;;;6.90;73.72
14790;BME280;7486;51.010;10.366;2023-04-19T01:31:34;99186.44;;;6.89;74.27
14790;BME280;7486;51.010;10.366;2023-04-19T01:34:21;99181.19;;;6.89;74.18
14790;BME280;7486;51.010;10.366;2023-04-19T01:37:06;99134.31;;;6.58;74.61
14790;BME280;7486;51.010;10.366;2023-04-19T01:39:52;99172.63;;;6.87;74.04
14790;BME280;7486;51.010;10.366;2023-04-19T01:42:37;99182.19;;;6.88;73.88
14790;BME280;7486;51.010;10.366;2023-04-19T01:45:23;99172.88;;;6.67;72.61
14790;BME280;7486;51.010;10.366;2023-04-19T01:48:08;99181.81;;;6.75;73.08
14790;BME280;7486;51.010;10.366;2023-04-19T01:50:53;99108.50;;;6.28;71.06
14790;BME280;7486;51.010;10.366;2023-04-19T01:53:38;99179.38;;;6.55;69.54
14790;BME280;7486;51.010;10.366;2023-04-19T01:56:24;99178.06;;;6.26;69.53
14790;BME280;7486;51.010;10.366;2023-04-19T01:59:09;99175.78;;;6.05;69.04
14790;BME280;7486;51.010;10.366;2023-04-19T02:01:55;99175.66;;;5.89;68.72
14790;BME280;7486;51.010;10.366;2023-04-19T02:04:42;99169.22;;;5.65;69.80
14790;BME280;7486;51.010;10.366;2023-04-19T02:07:27;99173.50;;;5.66;71.57
14790;BME280;7486;51.010;10.366;2023-04-19T02:10:15;99143.84;;;5.56;72.32
14790;BME280;7486;51.010;10.366;2023-04-19T02:13:00;99157.38;;;5.44;70.90
14790;BME280;7486;51.010;10.366;2023-04-19T02:15:45;99150.53;;;5.15;72.18
14790;BME280;7486;51.010;10.366;2023-04-19T02:18:31;99141.16;;;5.03;73.75
14790;BME280;7486;51.010;10.366;2023-04-19T02:21:16;99085.38;;;4.56;74.04
14790;BME280;7486;51.010;10.366;2023-04-19T02:24:02;99144.09;;;4.83;75.13
14790;BME280;7486;51.010;10.366;2023-04-19T02:26:48;99147.03;;;4.70;74.41
14790;BME280;7486;51.010;10.366;2023-04-19T02:29:34;99149.59;;;4.80;74.81
14790;BME280;7486;51.010;10.366;2023-04-19T02:32:21;99155.38;;;4.83;74.97
14790;BME280;7486;51.010;10.366;2023-04-19T02:35:07;99143.50;;;4.89;74.31
14790;BME280;7486;51.010;10.366;2023-04-19T02:37:53;99141.06;;;4.78;74.72
14790;BME280;7486;51.010;10.366;2023-04-19T02:40:38;99144.94;;;4.74;75.32
14790;BME280;7486;51.010;10.366;2023-04-19T02:43:23;99109.16;;;4.55;75.01
14790;BME280;7486;51.010;10.366;2023-04-19T02:46:09;99095.34;;;4.53;74.17
14790;BME280;7486;51.010;10.366;2023-04-19T02:48:54;99152.63;;;4.85;74.31
14790;BME280;7486;51.010;10.366;2023-04-19T02:51:40;99154.34;;;4.94;74.13
14790;BME280;7486;51.010;10.366;2023-04-19T02:54:26;99137.78;;;4.76;74.88
14790;BME280;7486;51.010;10.366;2023-04-19T02:57:11;99156.47;;;4.63;74.50
14790;BME280;7486;51.010;10.366;2023-04-19T02:59:59;99154.34;;;4.39;73.84
14790;BME280;7486;51.010;10.366;2023-04-19T03:02:44;99096.44;;;3.86;74.97
14790;BME280;7486;51.010;10.366;2023-04-19T03:05:30;99152.66;;;4.11;75.13
14790;BME280;7486;51.010;10.366;2023-04-19T03:08:16;99153.38;;;3.94;75.69
14790;BME280;7486;51.010;10.366;2023-04-19T03:11:02;99150.84;;;4.11;75.48
14790;BME280;7486;51.010;10.366;2023-04-19T03:13:48;99154.06;;;4.05;76.33
14790;BME280;7486;51.010;10.366;2023-04-19T03:16:33;99157.25;;;3.99;75.53
14790;BME280;7486;51.010;10.366;2023-04-19T03:19:19;99042.63;;;3.36;75.67
14790;BME280;7486;51.010;10.366;2023-04-19T03:22:08;99116.88;;;3.83;76.12
14790;BME280;7486;51.010;10.366;2023-04-19T03:24:54;99150.50;;;3.97;75.11
14790;BME280;7486;51.010;10.366;2023-04-19T03:27:40;99135.59;;;3.88;75.43
14790;BME280;7486;51.010;10.366;2023-04-19T03:30:29;99146.50;;;3.93;75.46
14790;BME280;7486;51.010;10.366;2023-04-19T03:33:15;99146.91;;;3.88;75.23
14790;BME280;7486;51.010;10.366;2023-04-19T03:36:01;99132.03;;;3.79;76.12
14790;BME280;7486;51.010;10.366;2023-04-19T03:38:46;99142.88;;;3.94;75.75
14790;BME280;7486;51.010;10.366;2023-04-19T03:41:36;99146.63;;;3.91;74.56
14790;BME280;7486;51.010;10.366;2023-04-19T03:44:32;99148.88;;;3.86;75.42
14790;BME280;7486;51.010;10.366;2023-04-19T03:47:20;99148.97;;;3.94;74.22
14790;BME280;7486;51.010;10.366;2023-04-19T03:50:08;99142.94;;;3.75;75.55
14790;BME280;7486;51.010;10.366;2023-04-19T03:52:55;99103.25;;;3.41;75.42
14790;BME280;7486;51.010;10.366;2023-04-19T03:55:40;99150.94;;;3.83;75.34
14790;BME280;7486;51.010;10.366;2023-04-19T03:58:26;99123.47;;;3.77;74.94
14790;BME280;7486;51.010;10.366;2023-04-19T04:01:21;99140.88;;;3.69;75.00
14790;BME280;7486;51.010;10.366;2023-04-19T04:04:07;99148.19;;;3.55;75.30
14790;BME280;7486;51.010;10.366;2023-04-19T04:06:53;99154.41;;;3.54;74.95
14790;BME280;7486;51.010;10.366;2023-04-19T04:09:38;99151.34;;;3.21;74.01
14790;BME280;7486;51.010;10.366;2023-04-19T04:12:24;99149.66;;;3.00;74.04
14790;BME280;7486;51.010;10.366;2023-04-19T04:15:11;99147.63;;;2.64;74.37
14790;BME280;7486;51.010;10.366;2023-04-19T04:18:04;99147.47;;;2.56;74.86
14790;BME280;7486;51.010;10.366;2023-04-19T04:20:51;99121.25;;;2.37;73.83
14790;BME280;7486;51.010;10.366;2023-04-19T04:23:37;99149.06;;;2.47;73.37
14790;BME280;7486;51.010;10.366;2023-04-19T04:26:26;99146.66;;;2.25;73.75
14790;BME280;7486;51.010;10.366;2023-04-19T04:29:32;99099.00;;;2.12;73.09
14790;BME280;7486;51.010;10.366;2023-04-19T04:32:20;99143.72;;;2.49;73.36
14790;BME280;7486;51.010;10.366;2023-04-19T04:35:06;99151.69;;;2.47;72.60
14790;BME280;7486;51.010;10.366;2023-04-19T04:38:08;99147.53;;;2.35;72.54
14790;BME280;7486;51.010;10.366;2023-04-19T04:41:10;99155.25;;;2.16;72.82
14790;BME280;7486;51.010;10.366;2023-04-19T04:43:55;99157.13;;;2.25;73.21
14790;BME280;7486;51.010;10.366;2023-04-19T04:46:56;99166.78;;;2.34;72.04
14790;BME280;7486;51.010;10.366;2023-04-19T04:49:44;99194.25;;;1.98;73.01
14790;BME280;7486;51.010;10.366;2023-04-19T04:52:30;99161.81;;;2.01;73.78
14790;BME280;7486;51.010;10.366;2023-04-19T04:55:23;99158.25;;;2.02;73.65
14790;BME280;7486;51.010;10.366;2023-04-19T04:58:08;99149.91;;;2.18;72.84
14790;BME280;7486;51.010;10.366;2023-04-19T05:01:10;99159.59;;;2.27;73.07
14790;BME280;7486;51.010;10.366;2023-04-19T05:03:57;99161.56;;;2.34;72.56
14790;BME280;7486;51.010;10.366;2023-04-19T05:06:43;99152.50;;;2.38;72.46
14790;BME280;7486;51.010;10.366;2023-04-19T05:09:32;99158.63;;;2.58;71.38
14790;BME280;7486;51.010;10.366;2023-04-19T05:12:17;99156.34;;;2.44;73.14
14790;BME280;7486;51.010;10.366;2023-04-19T05:15:02;99165.91;;;2.94;72.10
14790;BME280;7486;51.010;10.366;2023-04-19T05:17:48;99159.59;;;3.26;69.49
14790;BME280;7486;51.010;10.366;2023-04-19T05:20:35;99157.31;;;3.51;70.31
14790;BME280;7486;51.010;10.366;2023-04-19T05:23:27;99162.09;;;3.75;68.30
14790;BME280;7486;51.010;10.366;2023-04-19T05:26:14;99166.22;;;3.78;68.79
14790;BME280;7486;51.010;10.366;2023-04-19T05:29:00;99177.31;;;4.18;67.14
14790;BME280;7486;51.010;10.366;2023-04-19T05:31:56;99153.22;;;4.05;66.17
14790;BME280;7486;51.010;10.366;2023-04-19T05:34:49;99155.19;;;3.93;66.16
14790;BME280;7486;51.010;10.366;2023-04-19T05:37:34;99165.56;;;3.56;66.08
14790;BME280;7486;51.010;10.366;2023-04-19T05:40:19;99167.81;;;3.02;65.75
14790;BME280;7486;51.010;10.366;2023-04-19T05:43:05;99159.88;;;2.33;67.59
14790;BME280;7486;51.010;10.366;2023-04-19T05:45:50;99157.22;;;2.24;69.90
14790;BME280;7486;51.010;10.366;2023-04-19T05:48:36;99116.03;;;2.06;68.79
14790;BME280;7486;51.010;10.366;2023-04-19T05:51:44;99157.53;;;2.60;69.17
14790;BME280;7486;51.010;10.366;2023-04-19T05:54:43;99161.91;;;3.00;68.71
14790;BME280;7486;51.010;10.366;2023-04-19T05:57:28;99149.00;;;3.18;69.09
14790;BME280;7486;51.010;10.366;2023-04-19T06:00:14;99148.88;;;3.57;66.61
14790;BME280;7486;51.010;10.366;2023-04-19T06:03:08;99156.03;;;3.36;64.94
14790;BME280;7486;51.010;10.366;2023-04-19T06:05:54;99129.44;;;2.53;65.13
14790;BME280;7486;51.010;10.366;2023-04-19T06:08:40;99156.22;;;2.36;67.43
14790;BME280;7486;51.010;10.366;2023-04-19T06:11:29;99170.34;;;2.33;67.60
14790;BME280;7486;51.010;10.366;2023-04-19T06:14:27;99159.00;;;2.23;66.95
14790;BME280;7486;51.010;10.366;2023-04-19T06:17:12;99157.44;;;2.32;68.16
14790;BME280;7486;51.010;10.366;2023-04-19T06:19:58;99164.38;;;2.52;67.18
14790;BME280;7486;51.010;10.366;2023-04-19T06:22:44;99168.53;;;2.64;66.01
14790;BME280;7486;51.010;10.366;2023-04-19T06:25:30;99163.88;;;2.68;64.72
14790;BME280;7486;51.010;10.366;2023-04-19T06:28:15;99162.25;;;2.67;65.32
14790;BME280;7486;51.010;10.366;2023-04-19T06:31:01;99173.03;;;2.83;62.63
14790;BME280;7486;51.010;10.366;2023-04-19T06:33:46;99172.78;;;3.05;62.58
14790;BME280;7486;51.010;10.366;2023-04-19T06:36:32;99171.63;;;3.28;62.77
14790;BME280;7486;51.010;10.366;2023-04-19T06:39:17;99162.94;;;3.47;63.25
14790;BME280;7486;51.010;10.366;2023-04-19T06:42:03;99157.44;;;3.31;58.45
14790;BME280;7486;51.010;10.366;2023-04-19T06:44:48;99158.78;;;3.25;61.35
14790;BME280;7486;51.010;10.366;2023-04-19T06:47:33;99129.28;;;2.94;59.43
14790;BME280;7486;51.010;10.366;2023-04-19T06:50:20;99160.72;;;3.33;61.04
14790;BME280;7486;51.010;10.366;2023-04-19T06:53:05;99159.06;;;3.60;58.69
14790;BME280;7486;51.010;10.366;2023-04-19T06:56:01;99132.59;;;3.25;57.94
14790;BME280;7486;51.010;10.366;2023-04-19T06:58:47;99146.84;;;3.42;60.69
14790;BME280;7486;51.010;10.366;2023-04-19T07:01:32;99137.28;;;3.22;58.01
14790;BME280;7486;51.010;10.366;2023-04-19T07:04:18;99151.63;;;3.37;60.40
14790;BME280;7486;51.010;10.366;2023-04-19T07:07:04;99153.13;;;3.78;59.07
14790;BME280;7486;51.010;10.366;2023-04-19T07:09:49;99140.31;;;3.75;56.88
14790;BME280;7486;51.010;10.366;2023-04-19T07:12:36;99153.56;;;3.63;53.12
14790;BME280;7486;51.010;10.366;2023-04-19T07:15:22;99143.06;;;3.25;53.68
14790;BME280;7486;51.010;10.366;2023-04-19T07:18:07;99153.50;;;3.15;55.32
14790;BME280;7486;51.010;10.366;2023-04-19T07:20:53;99160.41;;;2.97;57.86
14790;BME280;7486;51.010;10.366;2023-04-19T07:23:38;99153.22;;;2.90;58.54
14790;BME280;7486;51.010;10.366;2023-04-19T07:26:24;99157.91;;;2.96;58.86
14790;BME280;7486;51.010;10.366;2023-04-19T07:29:09;99151.88;;;3.14;58.20
14790;BME280;7486;51.010;10.366;2023-04-19T07:31:58;99158.66;;;3.36;57.54
14790;BME280;7486;51.010;10.366;2023-04-19T07:34:44;99154.41;;;3.54;55.95
14790;BME280;7486;51.010;10.366;2023-04-19T07:37:30;99151.66;;;3.56;55.54
14790;BME280;7486;51.010;10.366;2023-04-19T07:40:15;99159.38;;;3.48;55.17
14790;BME280;7486;51.010;10.366;2023-04-19T07:43:00;99146.13;;;3.30;57.63
14790;BME280;7486;51.010;10.366;2023-04-19T07:45:46;99153.28;;;3.47;57.46
14790;BME280;7486;51.010;10.366;2023-04-19T07:48:31;99153.16;;;3.30;55.67
14790;BME280;7486;51.010;10.366;2023-04-19T07:51:17;99126.94;;;3.10;55.68
14790;BME280;7486;51.010;10.366;2023-04-19T07:54:02;99152.91;;;3.42;57.25
14790;BME280;7486;51.010;10.366;2023-04-19T07:56:47;99150.50;;;3.87;54.12
14790;BME280;7486;51.010;10.366;2023-04-19T07:59:33;99143.00;;;4.11;53.47
14790;BME280;7486;51.010;10.366;2023-04-19T08:02:18;99094.81;;;3.76;53.77
14790;BME280;7486;51.010;10.366;2023-04-19T08:05:04;99135.00;;;4.13;53.82
14790;BME280;7486;51.010;10.366;2023-04-19T08:07:50;99134.28;;;4.11;53.88
14790;BME280;7486;51.010;10.366;2023-04-19T08:10:36;99126.09;;;4.33;50.40
14790;BME280;7486;51.010;10.366;2023-04-19T08:13:22;99134.81;;;4.61;51.57
14790;BME280;7486;51.010;10.366;2023-04-19T08:16:07;99048.59;;;4.21;50.17
14790;BME280;7486;51.010;10.366;2023-04-19T08:18:55;99128.97;;;4.67;50.32
14790;BME280;7486;51.010;10.366;2023-04-19T08:21:40;99131.75;;;4.65;50.60
14790;BME280;7486;51.010;10.366;2023-04-19T08:24:26;99126.75;;;4.62;50.44
14790;BME280;7486;51.010;10.366;2023-04-19T08:27:11;99128.03;;;4.86;49.50
14790;BME280;7486;51.010;10.366;2023-04-19T08:29:57;99123.69;;;4.94;51.01
14790;BME280;7486;51.010;10.366;2023-04-19T08:32:42;99110.50;;;5.04;50.09
14790;BME280;7486;51.010;10.366;2023-04-19T08:35:27;99103.63;;;5.21;45.57
14790;BME280;7486;51.010;10.366;2023-04-19T08:38:13;99103.19;;;5.25;47.53
14790;BME280;7486;51.010;10.366;2023-04-19T08:40:59;99115.47;;;5.42;51.28
14790;BME280;7486;51.010;10.366;2023-04-19T08:43:46;99109.06;;;5.62;45.52
14790;BME280;7486;51.010;10.366;2023-04-19T08:46:32;99086.66;;;5.50;45.82
14790;BME280;7486;51.010;10.366;2023-04-19T08:49:18;99098.97;;;5.32;47.14
14790;BME280;7486;51.010;10.366;2023-04-19T08:52:05;99069.63;;;5.37;51.15
14790;BME280;7486;51.010;10.366;2023-04-19T08:54:51;99081.91;;;5.54;47.45
14790;BME280;7486;51.010;10.366;2023-04-19T08:57:40;99092.25;;;5.55;44.67
14790;BME280;7486;51.010;10.366;2023-04-19T09:00:26;99090.41;;;5.48;44.56
14790;BME280;7486;51.010;10.366;2023-04-19T09:03:11;99099.91;;;5.66;47.97
14790;BME280;7486;51.010;10.366;2023-04-19T09:05:59;99093.16;;;5.90;46.57
14790;BME280;7486;51.010;10.366;2023-04-19T09:08:45;99082.03;;;5.70;44.06
14790;BME280;7486;51.010;10.366;2023-04-19T09:11:37;99081.50;;;6.18;48.20
14790;BME280;7486;51.010;10.366;2023-04-19T09:14:24;99060.88;;;6.05;43.28
14790;BME280;7486;51.010;10.366;2023-04-19T09:17:11;99073.09;;;6.14;44.22
14790;BME280;7486;51.010;10.366;2023-04-19T09:19:57;99072.44;;;6.20;43.81
14790;BME280;7486;51.010;10.366;2023-04-19T09:23:01;99050.13;;;6.25;44.99
14790;BME280;7486;51.010;10.366;2023-04-19T09:26:00;99066.59;;;6.35;44.26
14790;BME280;7486;51.010;10.366;2023-04-19T09:29:00;99060.78;;;6.57;43.88
14790;BME280;7486;51.010;10.366;2023-04-19T09:31:58;98984.53;;;6.23;41.80
14790;BME280;7486;51.010;10.366;2023-04-19T09:34:54;98987.53;;;6.44;42.54
14790;BME280;7486;51.010;10.366;2023-04-19T09:37:39;99058.34;;;6.72;41.06
14790;BME280;7486;51.010;10.366;2023-04-19T09:40:45;99058.22;;;6.73;40.95
14790;BME280;7486;51.010;10.366;2023-04-19T09:43:30;99053.38;;;6.60;41.02
14790;BME280;7486;51.010;10.366;2023-04-19T09:46:32;99046.56;;;6.42;38.39
14790;BME280;7486;51.010;10.366;2023-04-19T09:49:22;99017.06;;;6.22;39.81
14790;BME280;7486;51.010;10.366;2023-04-19T09:52:25;99052.47;;;6.78;42.03
14790;BME280;7486;51.010;10.366;2023-04-19T09:55:10;99050.53;;;7.04;42.47
14790;BME280;7486;51.010;10.366;2023-04-19T09:58:11;99040.16;;;7.27;41.77
14790;BME280;7486;51.010;10.366;2023-04-19T10:00:57;99034.88;;;7.35;42.13
14790;BME280;7486;51.010;10.366;2023-04-19T10:03:58;99024.69;;;7.24;43.79
14790;BME280;7486;51.010;10.366;2023-04-19T10:07:04;99035.88;;;7.09;43.04
14790;BME280;7486;51.010;10.366;2023-04-19T10:10:10;98999.22;;;6.58;41.82
14790;BME280;7486;51.010;10.366;2023-04-19T10:13:07;99020.22;;;6.84;39.49
14790;BME280;7486;51.010;10.366;2023-04-19T10:16:04;99013.28;;;6.83;40.76
14790;BME280;7486;51.010;10.366;2023-04-19T10:19:08;99013.00;;;7.02;43.49
14790;BME280;7486;51.010;10.366;2023-04-19T10:21:55;98939.56;;;6.91;40.43
14790;BME280;7486;51.010;10.366;2023-04-19T10:25:10;99003.56;;;7.40;44.05
14790;BME280;7486;51.010;10.366;2023-04-19T10:27:56;98993.84;;;7.40;39.54
14790;BME280;7486;51.010;10.366;2023-04-19T10:31:02;99008.38;;;7.04;40.94
14790;BME280;7486;51.010;10.366;2023-04-19T10:33:48;99006.56;;;6.96;38.98
14790;BME280;7486;51.010;10.366;2023-04-19T10:36:34;98927.94;;;6.27;40.53
14790;BME280;7486;51.010;10.366;2023-04-19T10:39:40;98986.34;;;7.05;44.93
14790;BME280;7486;51.010;10.366;2023-04-19T10:43:28;98995.88;;;7.14;42.71
14790;BME280;7486;51.010;10.366;2023-04-19T10:45:57;98997.19;;;7.10;42.71
14790;BME280;7486;51.010;10.366;2023-04-19T10:51:40;98880.78;;;6.26;43.43
14790;BME280;7486;51.010;10.366;2023-04-19T10:54:32;98974.13;;;6.96;43.73
14790;BME280;7486;51.010;10.366;2023-04-19T10:57:18;98975.72;;;6.56;44.23
14790;BME280;7486;51.010;10.366;2023-04-19T11:00:20;98962.94;;;6.78;46.47
14790;BME280;7486;51.010;10.366;2023-04-19T11:06:28;98930.66;;;6.92;44.31
14790;BME280;7486;51.010;10.366;2023-04-19T11:09:24;98941.81;;;7.26;43.22
14790;BME280;7486;51.010;10.366;2023-04-19T11:12:12;98759.75;;;5.93;42.03
14790;BME280;7486;51.010;10.366;2023-04-19T11:14:58;98863.69;;;6.38;44.58
14790;BME280;7486;51.010;10.366;2023-04-19T11:17:43;98944.00;;;6.82;42.71
14790;BME280;7486;51.010;10.366;2023-04-19T11:20:29;98909.94;;;6.89;43.00
14790;BME280;7486;51.010;10.366;2023-04-19T11:23:17;98855.16;;;6.76;45.33
14790;BME280;7486;51.010;10.366;2023-04-19T11:26:03;98904.88;;;7.50;44.17
14790;BME280;7486;51.010;10.366;2023-04-19T11:28:48;98911.38;;;7.79;41.70
14790;BME280;7486;51.010;10.366;2023-04-19T11:31:34;98918.03;;;7.66;42.16
14790;BME280;7486;51.010;10.366;2023-04-19T11:34:22;98910.19;;;7.34;41.65
14790;BME280;7486;51.010;10.366;2023-04-19T11:37:08;98871.38;;;7.20;41.89
14790;BME280;7486;51.010;10.366;2023-04-19T11:39:54;98901.31;;;7.27;40.59
14790;BME280;7486;51.010;10.366;2023-04-19T11:42:39;98892.97;;;6.99;41.35
14790;BME280;7486;51.010;10.366;2023-04-19T11:45:30;98903.38;;;6.77;43.09
14790;BME280;7486;51.010;10.366;2023-04-19T11:48:20;98912.22;;;6.67;44.54
14790;BME280;7486;51.010;10.366;2023-04-19T11:51:06;98899.88;;;6.68;42.74
14790;BME280;7486;51.010;10.366;2023-04-19T11:53:51;98898.09;;;6.77;43.09
14790;BME280;7486;51.010;10.366;2023-04-19T11:56:55;98898.72;;;7.03;44.00
14790;BME280;7486;51.010;10.366;2023-04-19T12:00:01;98901.34;;;7.19;44.36
14790;BME280;7486;51.010;10.366;2023-04-19T12:02:56;98880.50;;;6.77;44.71
14790;BME280;7486;51.010;10.366;2023-04-19T12:05:57;98887.56;;;6.77;45.60
14790;BME280;7486;51.010;10.366;2023-04-19T12:08:45;98889.50;;;7.15;46.52
14790;BME280;7486;51.010;10.366;2023-04-19T12:11:46;98842.09;;;7.07;42.78
14790;BME280;7486;51.010;10.366;2023-04-19T12:14:31;98886.38;;;7.03;43.13
14790;BME280;7486;51.010;10.366;2023-04-19T12:17:16;98880.00;;;6.98;43.14
14790;BME280;7486;51.010;10.366;2023-04-19T12:20:02;98882.25;;;7.09;43.23
14790;BME280;7486;51.010;10.366;2023-04-19T12:22:47;98883.44;;;6.98;43.52
14790;BME280;7486;51.010;10.366;2023-04-19T12:25:33;98875.94;;;7.26;45.52
14790;BME280;7486;51.010;10.366;2023-04-19T12:28:18;98802.88;;;7.20;44.01
14790;BME280;7486;51.010;10.366;2023-04-19T12:31:04;98879.56;;;7.33;43.29
14790;BME280;7486;51.010;10.366;2023-04-19T12:33:50;98874.16;;;7.27;44.62
14790;BME280;7486;51.010;10.366;2023-04-19T12:36:35;98865.41;;;7.26;43.53
14790;BME280;7486;51.010;10.366;2023-04-19T12:39:21;98860.38;;;7.63;40.17
14790;BME280;7486;51.010;10.366;2023-04-19T12:42:07;98858.31;;;7.43;41.02
14790;BME280;7486;51.010;10.366;2023-04-19T12:44:52;98863.78;;;7.25;39.83
14790;BME280;7486;51.010;10.366;2023-04-19T12:47:38;98864.44;;;7.27;38.94
14790;BME280;7486;51.010;10.366;2023-04-19T12:50:23;98860.53;;;6.99;40.19
14790;BME280;7486;51.010;10.366;2023-04-19T12:53:09;98865.16;;;6.89;40.05
14790;BME280;7486;51.010;10.366;2023-04-19T12:55:54;98864.38;;;6.80;40.63
14790;BME280;7486;51.010;10.366;2023-04-19T12:58:39;98867.78;;;6.89;41.78
14790;BME280;7486;51.010;10.366;2023-04-19T13:01:25;98871.78;;;6.85;41.92
14790;BME280;7486;51.010;10.366;2023-04-19T13:04:10;98865.84;;;6.91;42.86
14790;BME280;7486;51.010;10.366;2023-04-19T13:06:56;98822.06;;;6.82;42.02
14790;BME280;7486;51.010;10.366;2023-04-19T13:09:42;98847.66;;;7.20;40.15
14790;BME280;7486;51.010;10.366;2023-04-19T13:12:27;98839.09;;;7.57;39.11
14790;BME280;7486;51.010;10.366;2023-04-19T13:15:13;98801.53;;;7.63;40.05
14790;BME280;7486;51.010;10.366;2023-04-19T13:17:58;98843.06;;;7.61;35.67
14790;BME280;7486;51.010;10.366;2023-04-19T13:20:44;98830.38;;;7.26;39.79
14790;BME280;7486;51.010;10.366;2023-04-19T13:23:29;98797.97;;;7.09;38.05
14790;BME280;7486;51.010;10.366;2023-04-19T13:26:15;98827.69;;;7.34;37.90
14790;BME280;7486;51.010;10.366;2023-04-19T13:29:00;98812.94;;;7.55;41.22
14790;BME280;7486;51.010;10.366;2023-04-19T13:31:45;98809.97;;;7.50;40.77
14790;BME280;7486;51.010;10.366;2023-04-19T13:34:31;98854.53;;;7.37;41.47
14790;BME280;7486;51.010;10.366;2023-04-19T13:37:17;98832.53;;;7.14;43.46
14790;BME280;7486;51.010;10.366;2023-04-19T13:40:02;98790.16;;;6.52;41.07
14790;BME280;7486;51.010;10.366;2023-04-19T13:43:06;98829.16;;;6.57;41.08
14790;BME280;7486;51.010;10.366;2023-04-19T13:45:52;98759.09;;;6.24;40.86
14790;BME280;7486;51.010;10.366;2023-04-19T13:48:37;98801.19;;;6.64;40.04
14790;BME280;7486;51.010;10.366;2023-04-19T13:51:23;98793.50;;;7.09;43.77
14790;BME280;7486;51.010;10.366;2023-04-19T13:54:08;98803.28;;;7.40;38.12
14790;BME280;7486;51.010;10.366;2023-04-19T13:56:54;98803.91;;;7.11;41.02
14790;BME280;7486;51.010;10.366;2023-04-19T13:59:39;98805.41;;;6.97;39.21
14790;BME280;7486;51.010;10.366;2023-04-19T14:02:24;98805.28;;;6.91;40.23
14790;BME280;7486;51.010;10.366;2023-04-19T14:05:10;98795.25;;;6.62;41.04
14790;BME280;7486;51.010;10.366;2023-04-19T14:07:55;98773.03;;;6.81;41.41
14790;BME280;7486;51.010;10.366;2023-04-19T14:10:41;98787.38;;;7.25;41.27
14790;BME280;7486;51.010;10.366;2023-04-19T14:13:26;98770.97;;;7.15;41.20
14790;BME280;7486;51.010;10.366;2023-04-19T14:16:11;98784.06;;;7.23;40.59
14790;BME280;7486;51.010;10.366;2023-04-19T14:18:57;98786.22;;;7.58;39.69
14790;BME280;7486;51.010;10.366;2023-04-19T14:21:42;98765.47;;;7.63;39.61
14790;BME280;7486;51.010;10.366;2023-04-19T14:24:27;98707.28;;;7.34;37.00
14790;BME280;7486;51.010;10.366;2023-04-19T14:27:12;98766.28;;;7.87;40.46
14790;BME280;7486;51.010;10.366;2023-04-19T14:29:58;98749.63;;;7.63;38.38
14790;BME280;7486;51.010;10.366;2023-04-19T14:32:44;98767.31;;;7.78;37.15
14790;BME280;7486;51.010;10.366;2023-04-19T14:35:30;98758.78;;;7.76;37.92
14790;BME280;7486;51.010;10.366;2023-04-19T14:38:15;98726.81;;;7.70;37.61
14790;BME280;7486;51.010;10.366;2023-04-19T14:41:01;98730.63;;;7.68;35.46
14790;BME280;7486;51.010;10.366;2023-04-19T14:43:46;98745.00;;;7.88;39.80
14790;BME280;7486;51.010;10.366;2023-04-19T14:46:31;98747.88;;;7.79;38.96
14790;BME280;7486;51.010;10.366;2023-04-19T14:49:17;98660.72;;;7.27;38.14
14790;BME280;7486;51.010;10.366;2023-04-19T14:52:03;98741.06;;;7.61;37.57
14790;BME280;7486;51.010;10.366;2023-04-19T14:54:48;98758.75;;;7.14;38.44
14790;BME280;7486;51.010;10.366;2023-04-19T14:57:34;98750.66;;;6.85;39.61
14790;BME280;7486;51.010;10.366;2023-04-19T15:00:19;98750.19;;;6.73;40.14
14790;BME280;7486;51.010;10.366;2023-04-19T15:03:05;98688.56;;;6.27;40.68
14790;BME280;7486;51.010;10.366;2023-04-19T15:05:51;98752.00;;;6.73;41.04